sensor_id;sensor_type;location;lat;lon;timestamp;temperature;humidity
20911;DHT22;10615;42.702;23.314;2023-06-04T00:00:31;16.60;99.90
20911;DHT22;10615;42.702;23.314;2023-06-04T00:01:31;16.60;99.90
20911;DHT22;10615;42.702;23.314;2023-06-04T00:02:32;16.60;99.90
20911;DHT22;10615;42.702;23.314;2023-06-04T00:03:34;16.60;99.90
20911;DHT22;10615;42.702;23.314;2023-06-04T00:04:34;16.60;99.90
20911;DHT22;10615;42.702;23.314;2023-06-04T00:05:35;16.60;99.90
20911;DHT22;10615;42.702;23.314;2023-06-04T00:06:36;16.60;99.90
20911;DHT22;10615;42.702;23.314;2023-06-04T00:07:37;16.60;99.90
20911;DHT22;10615;42.702;23.314;2023-06-04T00:08:37;16.60;99.90
20911;DHT22;10615;42.702;23.314;2023-06-04T00:09:38;16.60;99.90
20911;DHT22;10615;42.702;23.314;2023-06-04T00:10:39;16.60;99.90
20911;DHT22;10615;42.702;23.314;2023-06-04T00:11:40;16.60;99.90
20911;DHT22;10615;42.702;23.314;2023-06-04T00:12:41;16.60;99.90
20911;DHT22;10615;42.702;23.314;2023-06-04T00:13:42;16.60;99.90
20911;DHT22;10615;42.702;23.314;2023-06-04T00:14:43;16.60;99.90
20911;DHT22;10615;42.702;23.314;2023-06-04T00:15:43;16.60;99.90
20911;DHT22;10615;42.702;23.314;2023-06-04T00:16:44;16.90;99.90
20911;DHT22;10615;42.702;23.314;2023-06-04T00:17:45;16.60;99.90
20911;DHT22;10615;42.702;23.314;2023-06-04T00:18:45;16.60;99.90
20911;DHT22;10615;42.702;23.314;2023-06-04T00:19:46;16.60;99.90
20911;DHT22;10615;42.702;23.314;2023-06-04T00:20:47;16.60;99.90
20911;DHT22;10615;42.702;23.314;2023-06-04T00:21:47;16.60;99.90
20911;DHT22;10615;42.702;23.314;2023-06-04T00:22:48;16.70;99.90
20911;DHT22;10615;42.702;23.314;2023-06-04T00:23:49;16.70;99.90
20911;DHT22;10615;42.702;23.314;2023-06-04T00:24:49;16.70;99.90
20911;DHT22;10615;42.702;23.314;2023-06-04T00:25:50;16.70;99.90
20911;DHT22;10615;42.702;23.314;2023-06-04T00:26:51;16.70;99.90
20911;DHT22;10615;42.702;23.314;2023-06-04T00:27:52;16.70;99.90
20911;DHT22;10615;42.702;23.314;2023-06-04T00:28:54;16.70;99.90
20911;DHT22;10615;42.702;23.314;2023-06-04T00:29:55;16.60;99.90
20911;DHT22;10615;42.702;23.314;2023-06-04T00:30:56;16.60;99.90
20911;DHT22;10615;42.702;23.314;2023-06-04T00:31:56;16.60;99.90
20911;DHT22;10615;42.702;23.314;2023-06-04T00:32:57;16.60;99.90
20911;DHT22;10615;42.702;23.314;2023-06-04T00:33:58;16.60;99.90
20911;DHT22;10615;42.702;23.314;2023-06-04T00:34:58;16.60;99.90
20911;DHT22;10615;42.702;23.314;2023-06-04T00:35:59;16.60;99.90
20911;DHT22;10615;42.702;23.314;2023-06-04T00:36:59;16.60;99.90
20911;DHT22;10615;42.702;23.314;2023-06-04T00:38:01;16.60;99.90
20911;DHT22;10615;42.702;23.314;2023-06-04T00:39:02;16.50;99.90
20911;DHT22;10615;42.702;23.314;2023-06-04T00:40:03;16.50;99.90
20911;DHT22;10615;42.702;23.314;2023-06-04T00:41:05;16.50;99.90
20911;DHT22;10615;42.702;23.314;2023-06-04T00:42:06;16.50;99.90
20911;DHT22;10615;42.702;23.314;2023-06-04T00:43:07;16.50;99.90
20911;DHT22;10615;42.702;23.314;2023-06-04T00:44:08;16.50;99.90
20911;DHT22;10615;42.702;23.314;2023-06-04T00:45:10;16.50;99.90
20911;DHT22;10615;42.702;23.314;2023-06-04T00:46:11;16.50;99.90
20911;DHT22;10615;42.702;23.314;2023-06-04T00:47:20;16.50;99.90
20911;DHT22;10615;42.702;23.314;2023-06-04T00:48:21;16.50;99.90
20911;DHT22;10615;42.702;23.314;2023-06-04T00:49:22;16.50;99.90
20911;DHT22;10615;42.702;23.314;2023-06-04T00:50:22;16.50;99.90
20911;DHT22;10615;42.702;23.314;2023-06-04T00:51:23;16.50;99.90
20911;DHT22;10615;42.702;23.314;2023-06-04T00:52:24;16.40;99.90
20911;DHT22;10615;42.702;23.314;2023-06-04T00:53:26;16.40;99.90
20911;DHT22;10615;42.702;23.314;2023-06-04T00:54:26;16.40;99.90
20911;DHT22;10615;42.702;23.314;2023-06-04T00:55:28;16.40;99.90
20911;DHT22;10615;42.702;23.314;2023-06-04T00:56:28;16.40;99.90
20911;DHT22;10615;42.702;23.314;2023-06-04T00:57:29;16.40;99.90
20911;DHT22;10615;42.702;23.314;2023-06-04T00:58:29;16.40;99.90
20911;DHT22;10615;42.702;23.314;2023-06-04T00:59:32;16.40;99.90
20911;DHT22;10615;42.702;23.314;2023-06-04T01:00:33;16.30;99.90
20911;DHT22;10615;42.702;23.314;2023-06-04T01:01:43;16.30;99.90
20911;DHT22;10615;42.702;23.314;2023-06-04T01:02:47;16.30;99.90
20911;DHT22;10615;42.702;23.314;2023-06-04T01:03:53;16.30;99.90
20911;DHT22;10615;42.702;23.314;2023-06-04T01:07:37;16.20;99.90
20911;DHT22;10615;42.702;23.314;2023-06-04T01:08:39;16.20;99.90
20911;DHT22;10615;42.702;23.314;2023-06-04T01:09:44;16.20;99.90
20911;DHT22;10615;42.702;23.314;2023-06-04T01:10:52;16.30;99.90
20911;DHT22;10615;42.702;23.314;2023-06-04T01:11:53;16.30;99.90
20911;DHT22;10615;42.702;23.314;2023-06-04T01:12:54;16.20;99.90
20911;DHT22;10615;42.702;23.314;2023-06-04T01:13:54;16.20;99.90
20911;DHT22;10615;42.702;23.314;2023-06-04T01:14:55;16.20;99.90
20911;DHT22;10615;42.702;23.314;2023-06-04T01:15:56;16.30;99.90
20911;DHT22;10615;42.702;23.314;2023-06-04T01:17:04;16.30;99.90
20911;DHT22;10615;42.702;23.314;2023-06-04T01:18:09;16.20;99.90
20911;DHT22;10615;42.702;23.314;2023-06-04T01:21:34;16.20;99.90
20911;DHT22;10615;42.702;23.314;2023-06-04T01:23:46;16.20;99.90
20911;DHT22;10615;42.702;23.314;2023-06-04T01:24:53;16.20;99.90
20911;DHT22;10615;42.702;23.314;2023-06-04T01:25:56;16.10;99.90
20911;DHT22;10615;42.702;23.314;2023-06-04T01:26:57;16.10;99.90
20911;DHT22;10615;42.702;23.314;2023-06-04T01:27:59;16.20;99.90
20911;DHT22;10615;42.702;23.314;2023-06-04T01:29:01;16.10;99.90
20911;DHT22;10615;42.702;23.314;2023-06-04T01:30:02;16.20;99.90
20911;DHT22;10615;42.702;23.314;2023-06-04T01:31:05;16.10;99.90
20911;DHT22;10615;42.702;23.314;2023-06-04T01:32:09;16.10;99.90
20911;DHT22;10615;42.702;23.314;2023-06-04T01:33:11;16.10;99.90
20911;DHT22;10615;42.702;23.314;2023-06-04T01:34:12;16.10;99.90
20911;DHT22;10615;42.702;23.314;2023-06-04T01:35:13;16.10;99.90
20911;DHT22;10615;42.702;23.314;2023-06-04T01:36:13;16.10;99.90
20911;DHT22;10615;42.702;23.314;2023-06-04T01:37:14;16.10;99.90
20911;DHT22;10615;42.702;23.314;2023-06-04T01:38:16;16.10;99.90
20911;DHT22;10615;42.702;23.314;2023-06-04T01:39:17;16.10;99.90
20911;DHT22;10615;42.702;23.314;2023-06-04T01:40:18;16.00;99.90
20911;DHT22;10615;42.702;23.314;2023-06-04T01:41:19;16.00;99.90
20911;DHT22;10615;42.702;23.314;2023-06-04T01:42:19;16.00;99.90
20911;DHT22;10615;42.702;23.314;2023-06-04T01:43:20;16.00;99.90
20911;DHT22;10615;42.702;23.314;2023-06-04T01:44:21;16.00;99.90
20911;DHT22;10615;42.702;23.314;2023-06-04T01:45:23;16.10;99.90
20911;DHT22;10615;42.702;23.314;2023-06-04T01:46:23;16.10;99.90
20911;DHT22;10615;42.702;23.314;2023-06-04T01:47:24;16.00;99.90
20911;DHT22;10615;42.702;23.314;2023-06-04T01:48:25;16.10;99.90
20911;DHT22;10615;42.702;23.314;2023-06-04T01:49:25;16.10;99.90
20911;DHT22;10615;42.702;23.314;2023-06-04T01:50:26;16.00;99.90
20911;DHT22;10615;42.702;23.314;2023-06-04T01:51:27;16.00;99.90
20911;DHT22;10615;42.702;23.314;2023-06-04T01:52:27;16.00;99.90
20911;DHT22;10615;42.702;23.314;2023-06-04T01:53:28;16.00;99.90
20911;DHT22;10615;42.702;23.314;2023-06-04T01:54:29;16.00;99.90
20911;DHT22;10615;42.702;23.314;2023-06-04T01:55:30;16.00;99.90
20911;DHT22;10615;42.702;23.314;2023-06-04T01:56:33;15.90;99.90
20911;DHT22;10615;42.702;23.314;2023-06-04T01:57:35;15.90;99.90
20911;DHT22;10615;42.702;23.314;2023-06-04T01:58:38;16.00;99.90
20911;DHT22;10615;42.702;23.314;2023-06-04T01:59:39;16.00;99.90
20911;DHT22;10615;42.702;23.314;2023-06-04T02:00:41;16.00;99.90
20911;DHT22;10615;42.702;23.314;2023-06-04T02:01:43;15.90;99.90
20911;DHT22;10615;42.702;23.314;2023-06-04T02:02:45;16.00;99.90
20911;DHT22;10615;42.702;23.314;2023-06-04T02:03:46;16.00;99.90
20911;DHT22;10615;42.702;23.314;2023-06-04T02:04:47;15.90;99.90
20911;DHT22;10615;42.702;23.314;2023-06-04T02:05:51;15.90;99.90
20911;DHT22;10615;42.702;23.314;2023-06-04T02:06:52;16.00;99.90
20911;DHT22;10615;42.702;23.314;2023-06-04T02:07:53;16.00;99.90
20911;DHT22;10615;42.702;23.314;2023-06-04T02:08:53;15.90;99.90
20911;DHT22;10615;42.702;23.314;2023-06-04T02:09:54;15.90;99.90
20911;DHT22;10615;42.702;23.314;2023-06-04T02:10:55;15.90;99.90
20911;DHT22;10615;42.702;23.314;2023-06-04T02:11:55;15.90;99.90
20911;DHT22;10615;42.702;23.314;2023-06-04T02:12:58;15.90;99.90
20911;DHT22;10615;42.702;23.314;2023-06-04T02:13:59;15.90;99.90
20911;DHT22;10615;42.702;23.314;2023-06-04T02:15:00;15.90;99.90
20911;DHT22;10615;42.702;23.314;2023-06-04T02:16:00;15.90;99.90
20911;DHT22;10615;42.702;23.314;2023-06-04T02:17:01;15.90;99.90
20911;DHT22;10615;42.702;23.314;2023-06-04T02:18:19;15.90;99.90
20911;DHT22;10615;42.702;23.314;2023-06-04T02:19:21;15.90;99.90
20911;DHT22;10615;42.702;23.314;2023-06-04T02:20:22;15.90;99.90
20911;DHT22;10615;42.702;23.314;2023-06-04T02:21:22;15.90;99.90
20911;DHT22;10615;42.702;23.314;2023-06-04T02:22:24;16.00;99.90
20911;DHT22;10615;42.702;23.314;2023-06-04T02:23:25;15.90;99.90
20911;DHT22;10615;42.702;23.314;2023-06-04T02:24:25;15.90;99.90
20911;DHT22;10615;42.702;23.314;2023-06-04T02:25:26;15.90;99.90
20911;DHT22;10615;42.702;23.314;2023-06-04T02:26:27;15.90;99.90
20911;DHT22;10615;42.702;23.314;2023-06-04T02:27:27;15.90;99.90
20911;DHT22;10615;42.702;23.314;2023-06-04T02:28:28;15.90;99.90
20911;DHT22;10615;42.702;23.314;2023-06-04T02:29:29;15.80;99.90
20911;DHT22;10615;42.702;23.314;2023-06-04T02:30:29;15.90;99.90
20911;DHT22;10615;42.702;23.314;2023-06-04T02:31:30;15.80;99.90
20911;DHT22;10615;42.702;23.314;2023-06-04T02:32:31;15.80;99.90
20911;DHT22;10615;42.702;23.314;2023-06-04T02:33:34;15.80;99.90
20911;DHT22;10615;42.702;23.314;2023-06-04T02:34:34;15.80;99.90
20911;DHT22;10615;42.702;23.314;2023-06-04T02:35:35;15.80;99.90
20911;DHT22;10615;42.702;23.314;2023-06-04T02:36:36;15.80;99.90
20911;DHT22;10615;42.702;23.314;2023-06-04T02:37:36;15.80;99.90
20911;DHT22;10615;42.702;23.314;2023-06-04T02:38:37;15.80;99.90
20911;DHT22;10615;42.702;23.314;2023-06-04T02:39:38;15.80;99.90
20911;DHT22;10615;42.702;23.314;2023-06-04T02:40:39;15.80;99.90
20911;DHT22;10615;42.702;23.314;2023-06-04T02:41:39;15.80;99.90
20911;DHT22;10615;42.702;23.314;2023-06-04T02:42:40;15.80;99.90
20911;DHT22;10615;42.702;23.314;2023-06-04T02:43:41;15.80;99.90
20911;DHT22;10615;42.702;23.314;2023-06-04T02:44:41;15.80;99.90
20911;DHT22;10615;42.702;23.314;2023-06-04T02:45:42;15.80;99.90
20911;DHT22;10615;42.702;23.314;2023-06-04T02:46:44;15.80;99.90
20911;DHT22;10615;42.702;23.314;2023-06-04T02:47:45;15.80;99.90
20911;DHT22;10615;42.702;23.314;2023-06-04T02:48:45;15.80;99.90
20911;DHT22;10615;42.702;23.314;2023-06-04T02:49:46;15.90;99.90
20911;DHT22;10615;42.702;23.314;2023-06-04T02:50:47;15.90;99.90
20911;DHT22;10615;42.702;23.314;2023-06-04T02:51:47;15.90;99.90
20911;DHT22;10615;42.702;23.314;2023-06-04T02:52:48;16.00;99.90
20911;DHT22;10615;42.702;23.314;2023-06-04T02:53:49;16.00;99.90
20911;DHT22;10615;42.702;23.314;2023-06-04T02:54:49;16.00;99.90
20911;DHT22;10615;42.702;23.314;2023-06-04T02:55:50;16.00;99.90
20911;DHT22;10615;42.702;23.314;2023-06-04T02:56:53;16.00;99.90
20911;DHT22;10615;42.702;23.314;2023-06-04T02:57:54;16.00;99.90
20911;DHT22;10615;42.702;23.314;2023-06-04T02:58:55;16.00;99.90
20911;DHT22;10615;42.702;23.314;2023-06-04T02:59:56;16.00;99.90
20911;DHT22;10615;42.702;23.314;2023-06-04T03:00:57;16.00;99.90
20911;DHT22;10615;42.702;23.314;2023-06-04T03:01:58;16.00;99.90
20911;DHT22;10615;42.702;23.314;2023-06-04T03:02:58;16.00;99.90
20911;DHT22;10615;42.702;23.314;2023-06-04T03:04:02;16.00;99.90
20911;DHT22;10615;42.702;23.314;2023-06-04T03:05:05;16.00;99.90
20911;DHT22;10615;42.702;23.314;2023-06-04T03:06:06;16.00;99.90
20911;DHT22;10615;42.702;23.314;2023-06-04T03:07:07;16.00;99.90
20911;DHT22;10615;42.702;23.314;2023-06-04T03:09:28;16.00;99.90
20911;DHT22;10615;42.702;23.314;2023-06-04T03:10:29;16.00;99.90
20911;DHT22;10615;42.702;23.314;2023-06-04T03:11:31;16.00;99.90
20911;DHT22;10615;42.702;23.314;2023-06-04T03:12:32;16.00;99.90
20911;DHT22;10615;42.702;23.314;2023-06-04T03:13:32;16.00;99.90
20911;DHT22;10615;42.702;23.314;2023-06-04T03:14:33;16.10;99.90
20911;DHT22;10615;42.702;23.314;2023-06-04T03:15:34;16.10;99.90
20911;DHT22;10615;42.702;23.314;2023-06-04T03:16:39;16.10;99.90
20911;DHT22;10615;42.702;23.314;2023-06-04T03:17:41;16.00;99.90
20911;DHT22;10615;42.702;23.314;2023-06-04T03:18:42;16.00;99.90
20911;DHT22;10615;42.702;23.314;2023-06-04T03:19:43;16.00;99.90
20911;DHT22;10615;42.702;23.314;2023-06-04T03:20:43;16.00;99.90
20911;DHT22;10615;42.702;23.314;2023-06-04T03:21:44;16.00;99.90
20911;DHT22;10615;42.702;23.314;2023-06-04T03:22:45;16.00;99.90
20911;DHT22;10615;42.702;23.314;2023-06-04T03:23:46;16.00;99.90
20911;DHT22;10615;42.702;23.314;2023-06-04T03:24:46;16.00;99.90
20911;DHT22;10615;42.702;23.314;2023-06-04T03:25:47;16.00;99.90
20911;DHT22;10615;42.702;23.314;2023-06-04T03:26:48;16.00;99.90
20911;DHT22;10615;42.702;23.314;2023-06-04T03:27:48;16.00;99.90
20911;DHT22;10615;42.702;23.314;2023-06-04T03:28:50;16.00;99.90
20911;DHT22;10615;42.702;23.314;2023-06-04T03:29:50;16.10;99.90
20911;DHT22;10615;42.702;23.314;2023-06-04T03:30:51;16.10;99.90
20911;DHT22;10615;42.702;23.314;2023-06-04T03:31:52;16.10;99.90
20911;DHT22;10615;42.702;23.314;2023-06-04T03:32:53;16.10;99.90
20911;DHT22;10615;42.702;23.314;2023-06-04T03:33:54;16.20;99.90
20911;DHT22;10615;42.702;23.314;2023-06-04T03:34:54;16.10;99.90
20911;DHT22;10615;42.702;23.314;2023-06-04T03:35:55;16.20;99.90
20911;DHT22;10615;42.702;23.314;2023-06-04T03:36:59;16.20;99.90
20911;DHT22;10615;42.702;23.314;2023-06-04T03:38:00;16.20;99.90
20911;DHT22;10615;42.702;23.314;2023-06-04T03:39:01;16.20;99.90
20911;DHT22;10615;42.702;23.314;2023-06-04T03:40:01;16.20;99.90
20911;DHT22;10615;42.702;23.314;2023-06-04T03:41:03;16.20;99.90
20911;DHT22;10615;42.702;23.314;2023-06-04T03:42:03;16.20;99.90
20911;DHT22;10615;42.702;23.314;2023-06-04T03:43:05;16.20;99.90
20911;DHT22;10615;42.702;23.314;2023-06-04T03:44:06;16.20;99.90
20911;DHT22;10615;42.702;23.314;2023-06-04T03:45:07;16.20;99.90
20911;DHT22;10615;42.702;23.314;2023-06-04T03:46:07;16.20;99.90
20911;DHT22;10615;42.702;23.314;2023-06-04T03:47:08;16.20;99.90
20911;DHT22;10615;42.702;23.314;2023-06-04T03:48:09;16.10;99.90
20911;DHT22;10615;42.702;23.314;2023-06-04T03:49:10;16.10;99.90
20911;DHT22;10615;42.702;23.314;2023-06-04T03:50:11;16.10;99.90
20911;DHT22;10615;42.702;23.314;2023-06-04T03:51:12;16.10;99.90
20911;DHT22;10615;42.702;23.314;2023-06-04T03:52:12;16.10;99.90
20911;DHT22;10615;42.702;23.314;2023-06-04T03:53:13;16.10;99.90
20911;DHT22;10615;42.702;23.314;2023-06-04T03:54:14;16.10;99.90
20911;DHT22;10615;42.702;23.314;2023-06-04T03:55:17;16.10;99.90
20911;DHT22;10615;42.702;23.314;2023-06-04T03:56:18;16.00;99.90
20911;DHT22;10615;42.702;23.314;2023-06-04T03:57:18;16.00;99.90
20911;DHT22;10615;42.702;23.314;2023-06-04T03:58:19;16.00;99.90
20911;DHT22;10615;42.702;23.314;2023-06-04T03:59:21;16.00;99.90
20911;DHT22;10615;42.702;23.314;2023-06-04T04:00:22;16.00;99.90
20911;DHT22;10615;42.702;23.314;2023-06-04T04:01:23;16.00;99.90
20911;DHT22;10615;42.702;23.314;2023-06-04T04:02:24;16.00;99.90
20911;DHT22;10615;42.702;23.314;2023-06-04T04:03:24;16.00;99.90
20911;DHT22;10615;42.702;23.314;2023-06-04T04:04:25;16.00;99.90
20911;DHT22;10615;42.702;23.314;2023-06-04T04:05:26;16.00;99.90
20911;DHT22;10615;42.702;23.314;2023-06-04T04:06:26;16.10;99.90
20911;DHT22;10615;42.702;23.314;2023-06-04T04:07:27;16.10;99.90
20911;DHT22;10615;42.702;23.314;2023-06-04T04:08:28;16.10;99.90
20911;DHT22;10615;42.702;23.314;2023-06-04T04:09:31;16.10;99.90
20911;DHT22;10615;42.702;23.314;2023-06-04T04:10:32;16.10;99.90
20911;DHT22;10615;42.702;23.314;2023-06-04T04:11:33;16.10;99.90
20911;DHT22;10615;42.702;23.314;2023-06-04T04:12:34;16.10;99.90
20911;DHT22;10615;42.702;23.314;2023-06-04T04:13:34;16.10;99.90
20911;DHT22;10615;42.702;23.314;2023-06-04T04:14:35;16.10;99.90
20911;DHT22;10615;42.702;23.314;2023-06-04T04:15:37;16.10;99.90
20911;DHT22;10615;42.702;23.314;2023-06-04T04:16:38;16.10;99.90
20911;DHT22;10615;42.702;23.314;2023-06-04T04:17:38;16.10;99.90
20911;DHT22;10615;42.702;23.314;2023-06-04T04:18:41;16.10;99.90
20911;DHT22;10615;42.702;23.314;2023-06-04T04:19:43;16.20;99.90
20911;DHT22;10615;42.702;23.314;2023-06-04T04:20:44;16.20;99.90
20911;DHT22;10615;42.702;23.314;2023-06-04T04:21:46;16.20;99.90
20911;DHT22;10615;42.702;23.314;2023-06-04T04:22:48;16.20;99.90
20911;DHT22;10615;42.702;23.314;2023-06-04T04:23:50;16.20;99.90
20911;DHT22;10615;42.702;23.314;2023-06-04T04:24:52;16.30;99.90
20911;DHT22;10615;42.702;23.314;2023-06-04T04:25:53;16.30;99.90
20911;DHT22;10615;42.702;23.314;2023-06-04T04:26:54;16.40;99.90
20911;DHT22;10615;42.702;23.314;2023-06-04T04:27:55;16.40;99.90
20911;DHT22;10615;42.702;23.314;2023-06-04T04:28:56;16.40;99.90
20911;DHT22;10615;42.702;23.314;2023-06-04T04:29:58;16.40;99.90
20911;DHT22;10615;42.702;23.314;2023-06-04T04:31:00;16.40;99.90
20911;DHT22;10615;42.702;23.314;2023-06-04T04:32:03;16.40;99.90
20911;DHT22;10615;42.702;23.314;2023-06-04T04:33:10;16.50;99.90
20911;DHT22;10615;42.702;23.314;2023-06-04T04:34:11;16.50;99.90
20911;DHT22;10615;42.702;23.314;2023-06-04T04:35:12;16.50;99.90
20911;DHT22;10615;42.702;23.314;2023-06-04T04:36:12;16.50;99.90
20911;DHT22;10615;42.702;23.314;2023-06-04T04:37:14;16.50;99.90
20911;DHT22;10615;42.702;23.314;2023-06-04T04:38:15;16.50;99.90
20911;DHT22;10615;42.702;23.314;2023-06-04T04:39:22;16.50;99.90
20911;DHT22;10615;42.702;23.314;2023-06-04T04:40:24;16.50;99.90
20911;DHT22;10615;42.702;23.314;2023-06-04T04:41:25;16.50;99.90
20911;DHT22;10615;42.702;23.314;2023-06-04T04:42:26;16.50;99.90
20911;DHT22;10615;42.702;23.314;2023-06-04T04:43:34;16.50;99.90
20911;DHT22;10615;42.702;23.314;2023-06-04T04:44:35;16.60;99.90
20911;DHT22;10615;42.702;23.314;2023-06-04T04:45:36;16.60;99.90
20911;DHT22;10615;42.702;23.314;2023-06-04T04:46:36;16.60;99.90
20911;DHT22;10615;42.702;23.314;2023-06-04T04:47:37;16.60;99.90
20911;DHT22;10615;42.702;23.314;2023-06-04T04:48:38;16.70;99.90
20911;DHT22;10615;42.702;23.314;2023-06-04T04:49:41;16.80;99.90
20911;DHT22;10615;42.702;23.314;2023-06-04T04:50:41;16.80;99.90
20911;DHT22;10615;42.702;23.314;2023-06-04T04:51:42;16.90;99.90
20911;DHT22;10615;42.702;23.314;2023-06-04T04:52:43;16.90;99.90
20911;DHT22;10615;42.702;23.314;2023-06-04T04:53:43;16.90;99.90
20911;DHT22;10615;42.702;23.314;2023-06-04T04:54:44;17.00;99.90
20911;DHT22;10615;42.702;23.314;2023-06-04T04:55:45;17.00;99.90
20911;DHT22;10615;42.702;23.314;2023-06-04T04:56:45;17.00;99.90
20911;DHT22;10615;42.702;23.314;2023-06-04T04:57:46;17.10;99.90
20911;DHT22;10615;42.702;23.314;2023-06-04T04:58:47;17.10;99.90
20911;DHT22;10615;42.702;23.314;2023-06-04T04:59:48;17.10;99.90
20911;DHT22;10615;42.702;23.314;2023-06-04T05:00:49;17.10;99.90
20911;DHT22;10615;42.702;23.314;2023-06-04T05:01:50;17.10;99.90
20911;DHT22;10615;42.702;23.314;2023-06-04T05:02:51;17.10;99.90
20911;DHT22;10615;42.702;23.314;2023-06-04T05:03:52;17.10;99.90
20911;DHT22;10615;42.702;23.314;2023-06-04T05:04:53;17.10;99.90
20911;DHT22;10615;42.702;23.314;2023-06-04T05:05:54;17.10;99.90
20911;DHT22;10615;42.702;23.314;2023-06-04T05:06:54;17.10;99.90
20911;DHT22;10615;42.702;23.314;2023-06-04T05:07:55;17.10;99.90
20911;DHT22;10615;42.702;23.314;2023-06-04T05:08:56;17.20;99.90
20911;DHT22;10615;42.702;23.314;2023-06-04T05:09:56;17.20;99.90
20911;DHT22;10615;42.702;23.314;2023-06-04T05:10:57;17.20;99.90
20911;DHT22;10615;42.702;23.314;2023-06-04T05:11:58;17.20;99.90
20911;DHT22;10615;42.702;23.314;2023-06-04T05:13:00;17.20;99.90
20911;DHT22;10615;42.702;23.314;2023-06-04T05:14:05;17.20;99.90
20911;DHT22;10615;42.702;23.314;2023-06-04T05:15:06;17.20;99.90
20911;DHT22;10615;42.702;23.314;2023-06-04T05:16:07;17.30;99.90
20911;DHT22;10615;42.702;23.314;2023-06-04T05:17:08;17.30;99.90
20911;DHT22;10615;42.702;23.314;2023-06-04T05:18:11;17.30;99.90
20911;DHT22;10615;42.702;23.314;2023-06-04T05:19:12;17.30;99.90
20911;DHT22;10615;42.702;23.314;2023-06-04T05:20:13;17.30;99.90
20911;DHT22;10615;42.702;23.314;2023-06-04T05:21:14;17.30;99.90
20911;DHT22;10615;42.702;23.314;2023-06-04T05:22:16;17.30;99.90
20911;DHT22;10615;42.702;23.314;2023-06-04T05:23:19;17.30;99.90
20911;DHT22;10615;42.702;23.314;2023-06-04T05:24:19;17.30;99.90
20911;DHT22;10615;42.702;23.314;2023-06-04T05:25:20;17.40;99.90
20911;DHT22;10615;42.702;23.314;2023-06-04T05:26:22;17.40;99.90
20911;DHT22;10615;42.702;23.314;2023-06-04T05:27:26;17.30;99.90
20911;DHT22;10615;42.702;23.314;2023-06-04T05:28:27;17.40;99.90
20911;DHT22;10615;42.702;23.314;2023-06-04T05:29:28;17.40;99.90
20911;DHT22;10615;42.702;23.314;2023-06-04T05:30:28;17.30;99.90
20911;DHT22;10615;42.702;23.314;2023-06-04T05:31:29;17.40;99.90
20911;DHT22;10615;42.702;23.314;2023-06-04T05:32:33;17.50;99.90
20911;DHT22;10615;42.702;23.314;2023-06-04T05:33:34;17.50;99.90
20911;DHT22;10615;42.702;23.314;2023-06-04T05:34:35;17.50;99.90
20911;DHT22;10615;42.702;23.314;2023-06-04T05:35:37;17.50;99.90
20911;DHT22;10615;42.702;23.314;2023-06-04T05:36:42;17.60;99.90
20911;DHT22;10615;42.702;23.314;2023-06-04T05:37:42;17.60;99.90
20911;DHT22;10615;42.702;23.314;2023-06-04T05:38:46;17.70;99.90
20911;DHT22;10615;42.702;23.314;2023-06-04T05:39:46;17.70;99.90
20911;DHT22;10615;42.702;23.314;2023-06-04T05:40:48;17.70;99.90
20911;DHT22;10615;42.702;23.314;2023-06-04T05:41:48;17.80;99.90
20911;DHT22;10615;42.702;23.314;2023-06-04T05:42:49;17.80;99.90
20911;DHT22;10615;42.702;23.314;2023-06-04T05:43:50;17.90;99.90
20911;DHT22;10615;42.702;23.314;2023-06-04T05:44:51;17.90;99.90
20911;DHT22;10615;42.702;23.314;2023-06-04T05:45:52;17.90;99.90
20911;DHT22;10615;42.702;23.314;2023-06-04T05:46:52;17.90;99.90
20911;DHT22;10615;42.702;23.314;2023-06-04T05:47:56;18.00;99.90
20911;DHT22;10615;42.702;23.314;2023-06-04T05:48:57;17.90;99.90
20911;DHT22;10615;42.702;23.314;2023-06-04T05:49:57;18.00;99.90
20911;DHT22;10615;42.702;23.314;2023-06-04T05:50:58;18.00;99.90
20911;DHT22;10615;42.702;23.314;2023-06-04T05:51:59;18.00;99.90
20911;DHT22;10615;42.702;23.314;2023-06-04T05:52:59;18.00;99.90
20911;DHT22;10615;42.702;23.314;2023-06-04T05:54:00;18.00;99.90
20911;DHT22;10615;42.702;23.314;2023-06-04T05:55:02;18.00;99.90
20911;DHT22;10615;42.702;23.314;2023-06-04T05:56:02;18.00;99.90
20911;DHT22;10615;42.702;23.314;2023-06-04T05:57:04;18.00;99.90
20911;DHT22;10615;42.702;23.314;2023-06-04T05:58:05;18.10;99.90
20911;DHT22;10615;42.702;23.314;2023-06-04T05:59:06;18.10;99.90
20911;DHT22;10615;42.702;23.314;2023-06-04T06:00:07;18.10;99.90
20911;DHT22;10615;42.702;23.314;2023-06-04T06:01:11;18.10;99.90
20911;DHT22;10615;42.702;23.314;2023-06-04T06:02:12;18.20;99.90
20911;DHT22;10615;42.702;23.314;2023-06-04T06:03:13;18.20;99.90
20911;DHT22;10615;42.702;23.314;2023-06-04T06:04:16;18.20;99.90
20911;DHT22;10615;42.702;23.314;2023-06-04T06:05:18;18.20;99.90
20911;DHT22;10615;42.702;23.314;2023-06-04T06:06:18;18.30;99.90
20911;DHT22;10615;42.702;23.314;2023-06-04T06:07:21;18.30;99.90
20911;DHT22;10615;42.702;23.314;2023-06-04T06:08:21;18.30;99.90
20911;DHT22;10615;42.702;23.314;2023-06-04T06:09:22;18.30;99.90
20911;DHT22;10615;42.702;23.314;2023-06-04T06:10:23;18.20;99.90
20911;DHT22;10615;42.702;23.314;2023-06-04T06:11:23;18.30;99.90
20911;DHT22;10615;42.702;23.314;2023-06-04T06:12:24;18.20;99.90
20911;DHT22;10615;42.702;23.314;2023-06-04T06:13:25;18.30;99.90
20911;DHT22;10615;42.702;23.314;2023-06-04T06:14:25;18.30;99.90
20911;DHT22;10615;42.702;23.314;2023-06-04T06:15:27;18.20;99.90
20911;DHT22;10615;42.702;23.314;2023-06-04T06:16:29;18.30;99.90
20911;DHT22;10615;42.702;23.314;2023-06-04T06:17:30;18.30;99.90
20911;DHT22;10615;42.702;23.314;2023-06-04T06:18:31;18.30;99.90
20911;DHT22;10615;42.702;23.314;2023-06-04T06:19:31;18.40;99.90
20911;DHT22;10615;42.702;23.314;2023-06-04T06:20:32;18.40;99.90
20911;DHT22;10615;42.702;23.314;2023-06-04T06:21:33;18.40;99.90
20911;DHT22;10615;42.702;23.314;2023-06-04T06:22:34;18.40;99.90
20911;DHT22;10615;42.702;23.314;2023-06-04T06:23:35;18.40;99.90
20911;DHT22;10615;42.702;23.314;2023-06-04T06:24:36;18.50;99.90
20911;DHT22;10615;42.702;23.314;2023-06-04T06:25:37;18.50;99.90
20911;DHT22;10615;42.702;23.314;2023-06-04T06:26:40;18.50;99.90
20911;DHT22;10615;42.702;23.314;2023-06-04T06:27:42;18.60;99.90
20911;DHT22;10615;42.702;23.314;2023-06-04T06:28:43;18.60;99.90